Hovedside
METAR-TAF:

METAR-TAF

Lufthavner :

Bergen, Norge

Bergen lufthavn

breddegrad: 60-17N, lengdegrad: 005-14E, høyde over havet: 5 m

Gjeldene værobservasjon

Denne rapporten ble laget for 29 minutter siden, klokken 19:50 UTC
Vind 4 kt fra Sørvest
Temperatur 12°C
Luftfuktighet 100%
Trykk 1011 hPa
Sikt 10 km eller mer
Spredte skyer i en høyde av 300 ft
Brutte skyer i en høyde av 600 ft

METAR: ENBR 281950Z 22004KT 9999 SCT003 BKN006 12/12 Q1011 RMK WIND 1200FT 29003KT

Tid: 22:19 (20:19 UTC)

Varsel

Varsel gyldig fra 28. klokken 18 UTC til 29. klokken 18 UTC
Vind 7 kt fra skiftende retning
Sikt 10 km eller mer
Få skyer i en høyde av 200 ft
Spredte skyer i en høyde av 2500 ft
Sannsynlighet 40%
fra 28. klokken 18 UTC til 29. klokken 06 UTC
Sikt: 1500 m
Brutte skyer i en høyde av 200 ft
tåkebanker

TAF: ENBR 2818/2918 VRB07KT 9999 FEW002 SCT025 PROB40 2818/2906 1500 BCFG BKN002

Værobservasjoner og værvarsel for over 4000 flyplasser (METAR- og TAF-rapporter).

Tilgjengelige stasjoner er representert av de røde og gule prikkene på kartet.

Hold musepekeren over prikken for å se navnet på stasjonen.

Klikk så for å se værobservasjoner og -varsler.

For å forandre kartet kan du klikke på den grønne knappen med svart kryss for å zoome inn, på den grønne knappen med strek for å zoome ut, eller på de grønne pilene for å se tilstøtende kart.


METAR-TAF: